sensor_id;sensor_type;location;lat;lon;timestamp;P1;durP1;ratioP1;P2;durP2;ratioP2
12042;SDS011;6082;49.306;12.862;2023-03-01T00:02:20;11.57;;;5.40;;
12042;SDS011;6082;49.306;12.862;2023-03-01T00:04:46;10.13;;;5.27;;
12042;SDS011;6082;49.306;12.862;2023-03-01T00:07:12;12.07;;;5.63;;
12042;SDS011;6082;49.306;12.862;2023-03-01T00:09:38;9.90;;;5.03;;
12042;SDS011;6082;49.306;12.862;2023-03-01T00:12:05;12.03;;;6.17;;
12042;SDS011;6082;49.306;12.862;2023-03-01T00:14:31;13.63;;;5.40;;
12042;SDS011;6082;49.306;12.862;2023-03-01T00:16:57;7.90;;;4.83;;
12042;SDS011;6082;49.306;12.862;2023-03-01T00:19:23;12.67;;;4.97;;
12042;SDS011;6082;49.306;12.862;2023-03-01T00:21:49;9.83;;;4.83;;
12042;SDS011;6082;49.306;12.862;2023-03-01T00:24:15;10.50;;;5.10;;
12042;SDS011;6082;49.306;12.862;2023-03-01T00:26:41;11.87;;;6.10;;
12042;SDS011;6082;49.306;12.862;2023-03-01T00:29:08;9.53;;;5.53;;
12042;SDS011;6082;49.306;12.862;2023-03-01T00:31:34;7.63;;;4.27;;
12042;SDS011;6082;49.306;12.862;2023-03-01T00:34:01;12.77;;;5.50;;
12042;SDS011;6082;49.306;12.862;2023-03-01T00:36:28;9.07;;;4.27;;
12042;SDS011;6082;49.306;12.862;2023-03-01T00:38:55;9.00;;;5.23;;
12042;SDS011;6082;49.306;12.862;2023-03-01T00:41:21;10.07;;;5.50;;
12042;SDS011;6082;49.306;12.862;2023-03-01T00:43:48;8.27;;;4.10;;
12042;SDS011;6082;49.306;12.862;2023-03-01T00:46:15;8.97;;;4.97;;
12042;SDS011;6082;49.306;12.862;2023-03-01T00:48:42;10.93;;;5.33;;
12042;SDS011;6082;49.306;12.862;2023-03-01T00:51:12;10.73;;;5.03;;
12042;SDS011;6082;49.306;12.862;2023-03-01T00:53:38;10.73;;;4.90;;
12042;SDS011;6082;49.306;12.862;2023-03-01T00:56:05;12.30;;;5.57;;
12042;SDS011;6082;49.306;12.862;2023-03-01T00:58:32;9.40;;;5.17;;
12042;SDS011;6082;49.306;12.862;2023-03-01T01:00:58;9.43;;;4.27;;
12042;SDS011;6082;49.306;12.862;2023-03-01T01:03:24;13.53;;;5.47;;
12042;SDS011;6082;49.306;12.862;2023-03-01T01:05:51;7.13;;;4.83;;
12042;SDS011;6082;49.306;12.862;2023-03-01T01:08:17;11.43;;;5.37;;
12042;SDS011;6082;49.306;12.862;2023-03-01T01:10:44;9.73;;;5.67;;
12042;SDS011;6082;49.306;12.862;2023-03-01T01:13:10;9.47;;;5.33;;
12042;SDS011;6082;49.306;12.862;2023-03-01T01:15:36;7.93;;;5.33;;
12042;SDS011;6082;49.306;12.862;2023-03-01T01:18:02;8.30;;;4.77;;
12042;SDS011;6082;49.306;12.862;2023-03-01T01:20:29;10.47;;;4.97;;
12042;SDS011;6082;49.306;12.862;2023-03-01T01:22:55;10.77;;;4.90;;
12042;SDS011;6082;49.306;12.862;2023-03-01T01:25:21;9.93;;;5.33;;
12042;SDS011;6082;49.306;12.862;2023-03-01T01:27:50;7.30;;;4.30;;
12042;SDS011;6082;49.306;12.862;2023-03-01T01:30:16;7.47;;;4.17;;
12042;SDS011;6082;49.306;12.862;2023-03-01T01:32:42;10.40;;;4.83;;
12042;SDS011;6082;49.306;12.862;2023-03-01T01:35:11;9.33;;;4.70;;
12042;SDS011;6082;49.306;12.862;2023-03-01T01:37:37;10.73;;;4.60;;
12042;SDS011;6082;49.306;12.862;2023-03-01T01:40:03;11.87;;;5.10;;
12042;SDS011;6082;49.306;12.862;2023-03-01T01:42:29;9.00;;;5.17;;
12042;SDS011;6082;49.306;12.862;2023-03-01T01:47:40;7.67;;;4.07;;
12042;SDS011;6082;49.306;12.862;2023-03-01T01:50:08;10.97;;;4.50;;
12042;SDS011;6082;49.306;12.862;2023-03-01T01:52:40;14.27;;;4.57;;
12042;SDS011;6082;49.306;12.862;2023-03-01T01:55:16;12.03;;;5.73;;
12042;SDS011;6082;49.306;12.862;2023-03-01T01:57:46;14.27;;;4.67;;
12042;SDS011;6082;49.306;12.862;2023-03-01T02:02:39;8.93;;;4.03;;
12042;SDS011;6082;49.306;12.862;2023-03-01T02:07:40;7.23;;;4.80;;
12042;SDS011;6082;49.306;12.862;2023-03-01T02:10:07;8.40;;;4.23;;
12042;SDS011;6082;49.306;12.862;2023-03-01T02:12:33;8.60;;;4.20;;
12042;SDS011;6082;49.306;12.862;2023-03-01T02:14:59;5.83;;;4.13;;
12042;SDS011;6082;49.306;12.862;2023-03-01T02:17:25;7.27;;;4.80;;
12042;SDS011;6082;49.306;12.862;2023-03-01T02:22:28;10.03;;;4.67;;
12042;SDS011;6082;49.306;12.862;2023-03-01T02:27:21;10.17;;;5.50;;
12042;SDS011;6082;49.306;12.862;2023-03-01T02:29:50;7.57;;;4.40;;
12042;SDS011;6082;49.306;12.862;2023-03-01T02:32:16;7.23;;;4.63;;
12042;SDS011;6082;49.306;12.862;2023-03-01T02:34:50;12.50;;;5.63;;
12042;SDS011;6082;49.306;12.862;2023-03-01T02:37:16;8.97;;;5.10;;
12042;SDS011;6082;49.306;12.862;2023-03-01T02:39:49;12.57;;;5.37;;
12042;SDS011;6082;49.306;12.862;2023-03-01T02:42:19;9.60;;;5.47;;
12042;SDS011;6082;49.306;12.862;2023-03-01T02:44:46;9.30;;;4.57;;
12042;SDS011;6082;49.306;12.862;2023-03-01T02:47:12;6.67;;;4.53;;
12042;SDS011;6082;49.306;12.862;2023-03-01T02:49:38;8.47;;;4.47;;
12042;SDS011;6082;49.306;12.862;2023-03-01T02:54:35;14.70;;;6.87;;
12042;SDS011;6082;49.306;12.862;2023-03-01T02:57:02;9.27;;;4.97;;
12042;SDS011;6082;49.306;12.862;2023-03-01T02:59:30;11.13;;;5.63;;
12042;SDS011;6082;49.306;12.862;2023-03-01T03:01:57;11.97;;;5.70;;
12042;SDS011;6082;49.306;12.862;2023-03-01T03:04:23;11.80;;;5.13;;
12042;SDS011;6082;49.306;12.862;2023-03-01T03:06:50;11.63;;;4.87;;
12042;SDS011;6082;49.306;12.862;2023-03-01T03:09:16;9.53;;;4.50;;
12042;SDS011;6082;49.306;12.862;2023-03-01T03:11:43;12.07;;;4.97;;
12042;SDS011;6082;49.306;12.862;2023-03-01T03:14:10;11.77;;;5.63;;
12042;SDS011;6082;49.306;12.862;2023-03-01T03:16:50;9.53;;;5.23;;
12042;SDS011;6082;49.306;12.862;2023-03-01T03:19:17;8.53;;;4.53;;
12042;SDS011;6082;49.306;12.862;2023-03-01T03:21:43;9.47;;;4.50;;
12042;SDS011;6082;49.306;12.862;2023-03-01T03:24:09;9.30;;;3.77;;
12042;SDS011;6082;49.306;12.862;2023-03-01T03:26:36;10.33;;;5.00;;
12042;SDS011;6082;49.306;12.862;2023-03-01T03:29:02;6.80;;;4.23;;
12042;SDS011;6082;49.306;12.862;2023-03-01T03:31:28;9.90;;;4.63;;
12042;SDS011;6082;49.306;12.862;2023-03-01T03:33:55;10.17;;;4.83;;
12042;SDS011;6082;49.306;12.862;2023-03-01T03:36:22;10.27;;;4.30;;
12042;SDS011;6082;49.306;12.862;2023-03-01T03:38:49;8.63;;;4.63;;
12042;SDS011;6082;49.306;12.862;2023-03-01T03:41:15;11.00;;;5.57;;
12042;SDS011;6082;49.306;12.862;2023-03-01T03:43:41;11.10;;;5.50;;
12042;SDS011;6082;49.306;12.862;2023-03-01T03:46:08;11.97;;;5.13;;
12042;SDS011;6082;49.306;12.862;2023-03-01T03:48:35;8.57;;;4.97;;
12042;SDS011;6082;49.306;12.862;2023-03-01T03:51:02;13.40;;;6.20;;
12042;SDS011;6082;49.306;12.862;2023-03-01T03:53:30;9.00;;;4.53;;
12042;SDS011;6082;49.306;12.862;2023-03-01T03:55:56;8.87;;;4.80;;
12042;SDS011;6082;49.306;12.862;2023-03-01T03:58:23;9.40;;;4.40;;
12042;SDS011;6082;49.306;12.862;2023-03-01T04:00:51;10.37;;;4.37;;
12042;SDS011;6082;49.306;12.862;2023-03-01T04:03:18;13.47;;;5.57;;
12042;SDS011;6082;49.306;12.862;2023-03-01T04:05:45;13.43;;;6.37;;
12042;SDS011;6082;49.306;12.862;2023-03-01T04:08:11;7.03;;;4.63;;
12042;SDS011;6082;49.306;12.862;2023-03-01T04:10:42;6.37;;;4.63;;
12042;SDS011;6082;49.306;12.862;2023-03-01T04:13:10;9.67;;;4.93;;
12042;SDS011;6082;49.306;12.862;2023-03-01T04:15:36;5.93;;;3.73;;
12042;SDS011;6082;49.306;12.862;2023-03-01T04:18:03;8.60;;;4.53;;
12042;SDS011;6082;49.306;12.862;2023-03-01T04:20:30;10.93;;;5.80;;
12042;SDS011;6082;49.306;12.862;2023-03-01T04:25:24;12.43;;;6.13;;
12042;SDS011;6082;49.306;12.862;2023-03-01T04:27:50;13.23;;;5.60;;
12042;SDS011;6082;49.306;12.862;2023-03-01T04:30:16;8.63;;;5.33;;
12042;SDS011;6082;49.306;12.862;2023-03-01T04:32:43;8.70;;;3.83;;
12042;SDS011;6082;49.306;12.862;2023-03-01T04:35:09;10.00;;;4.93;;
12042;SDS011;6082;49.306;12.862;2023-03-01T04:37:35;9.70;;;5.13;;
12042;SDS011;6082;49.306;12.862;2023-03-01T04:40:02;8.50;;;5.03;;
12042;SDS011;6082;49.306;12.862;2023-03-01T04:42:40;11.63;;;5.30;;
12042;SDS011;6082;49.306;12.862;2023-03-01T04:45:07;10.63;;;5.43;;
12042;SDS011;6082;49.306;12.862;2023-03-01T04:47:41;10.60;;;5.50;;
12042;SDS011;6082;49.306;12.862;2023-03-01T04:50:08;9.17;;;4.43;;
12042;SDS011;6082;49.306;12.862;2023-03-01T04:52:34;8.47;;;4.23;;
12042;SDS011;6082;49.306;12.862;2023-03-01T04:55:01;12.87;;;5.50;;
12042;SDS011;6082;49.306;12.862;2023-03-01T04:57:27;8.83;;;4.50;;
12042;SDS011;6082;49.306;12.862;2023-03-01T04:59:53;15.20;;;5.53;;
12042;SDS011;6082;49.306;12.862;2023-03-01T05:02:19;8.57;;;5.37;;
12042;SDS011;6082;49.306;12.862;2023-03-01T05:04:45;11.90;;;4.47;;
12042;SDS011;6082;49.306;12.862;2023-03-01T05:07:11;8.10;;;4.40;;
12042;SDS011;6082;49.306;12.862;2023-03-01T05:09:38;11.43;;;5.27;;
12042;SDS011;6082;49.306;12.862;2023-03-01T05:12:04;7.63;;;4.93;;
12042;SDS011;6082;49.306;12.862;2023-03-01T05:14:30;7.37;;;4.43;;
12042;SDS011;6082;49.306;12.862;2023-03-01T05:16:56;13.17;;;5.57;;
12042;SDS011;6082;49.306;12.862;2023-03-01T05:19:29;11.87;;;5.23;;
12042;SDS011;6082;49.306;12.862;2023-03-01T05:21:56;7.00;;;4.77;;
12042;SDS011;6082;49.306;12.862;2023-03-01T05:24:32;10.63;;;4.67;;
12042;SDS011;6082;49.306;12.862;2023-03-01T05:26:59;9.60;;;5.87;;
12042;SDS011;6082;49.306;12.862;2023-03-01T05:29:25;14.63;;;6.17;;
12042;SDS011;6082;49.306;12.862;2023-03-01T05:31:53;9.67;;;5.00;;
12042;SDS011;6082;49.306;12.862;2023-03-01T05:34:23;16.67;;;5.33;;
12042;SDS011;6082;49.306;12.862;2023-03-01T05:36:50;12.53;;;4.97;;
12042;SDS011;6082;49.306;12.862;2023-03-01T05:39:18;14.53;;;5.57;;
12042;SDS011;6082;49.306;12.862;2023-03-01T05:41:46;9.43;;;5.63;;
12042;SDS011;6082;49.306;12.862;2023-03-01T05:44:12;10.27;;;5.13;;
12042;SDS011;6082;49.306;12.862;2023-03-01T05:46:38;15.83;;;6.33;;
12042;SDS011;6082;49.306;12.862;2023-03-01T05:49:04;10.80;;;5.40;;
12042;SDS011;6082;49.306;12.862;2023-03-01T05:51:31;9.93;;;5.80;;
12042;SDS011;6082;49.306;12.862;2023-03-01T05:53:59;9.80;;;5.57;;
12042;SDS011;6082;49.306;12.862;2023-03-01T05:56:25;11.30;;;5.23;;
12042;SDS011;6082;49.306;12.862;2023-03-01T05:58:51;11.77;;;6.10;;
12042;SDS011;6082;49.306;12.862;2023-03-01T06:01:17;13.27;;;6.37;;
12042;SDS011;6082;49.306;12.862;2023-03-01T06:03:43;10.10;;;6.20;;
12042;SDS011;6082;49.306;12.862;2023-03-01T06:06:09;9.97;;;4.33;;
12042;SDS011;6082;49.306;12.862;2023-03-01T06:08:35;10.70;;;5.43;;
12042;SDS011;6082;49.306;12.862;2023-03-01T06:11:01;13.10;;;5.50;;
12042;SDS011;6082;49.306;12.862;2023-03-01T06:13:27;6.43;;;4.83;;
12042;SDS011;6082;49.306;12.862;2023-03-01T06:15:53;17.83;;;6.03;;
12042;SDS011;6082;49.306;12.862;2023-03-01T06:18:19;10.30;;;5.50;;
12042;SDS011;6082;49.306;12.862;2023-03-01T06:20:51;11.33;;;5.77;;
12042;SDS011;6082;49.306;12.862;2023-03-01T06:23:17;9.20;;;4.77;;
12042;SDS011;6082;49.306;12.862;2023-03-01T06:25:43;9.90;;;5.53;;
12042;SDS011;6082;49.306;12.862;2023-03-01T06:28:09;14.33;;;6.50;;
12042;SDS011;6082;49.306;12.862;2023-03-01T06:30:36;11.70;;;5.80;;
12042;SDS011;6082;49.306;12.862;2023-03-01T06:33:02;12.33;;;6.10;;
12042;SDS011;6082;49.306;12.862;2023-03-01T06:35:28;13.93;;;6.30;;
12042;SDS011;6082;49.306;12.862;2023-03-01T06:37:55;12.53;;;6.93;;
12042;SDS011;6082;49.306;12.862;2023-03-01T06:40:22;12.20;;;5.57;;
12042;SDS011;6082;49.306;12.862;2023-03-01T06:42:48;20.43;;;5.73;;
12042;SDS011;6082;49.306;12.862;2023-03-01T06:45:15;10.57;;;6.10;;
12042;SDS011;6082;49.306;12.862;2023-03-01T06:47:41;13.93;;;6.17;;
12042;SDS011;6082;49.306;12.862;2023-03-01T06:50:08;12.93;;;5.47;;
12042;SDS011;6082;49.306;12.862;2023-03-01T06:52:34;18.13;;;7.47;;
12042;SDS011;6082;49.306;12.862;2023-03-01T06:55:00;15.73;;;5.97;;
12042;SDS011;6082;49.306;12.862;2023-03-01T06:57:26;12.00;;;5.33;;
12042;SDS011;6082;49.306;12.862;2023-03-01T06:59:53;16.83;;;6.30;;
12042;SDS011;6082;49.306;12.862;2023-03-01T07:02:19;12.90;;;6.00;;
12042;SDS011;6082;49.306;12.862;2023-03-01T07:04:45;9.73;;;6.37;;
12042;SDS011;6082;49.306;12.862;2023-03-01T07:07:11;9.83;;;5.13;;
12042;SDS011;6082;49.306;12.862;2023-03-01T07:09:37;9.70;;;7.17;;
12042;SDS011;6082;49.306;12.862;2023-03-01T07:12:03;10.67;;;5.47;;
12042;SDS011;6082;49.306;12.862;2023-03-01T07:14:29;11.03;;;5.70;;
12042;SDS011;6082;49.306;12.862;2023-03-01T07:16:55;10.27;;;4.83;;
12042;SDS011;6082;49.306;12.862;2023-03-01T07:19:21;9.17;;;5.93;;
12042;SDS011;6082;49.306;12.862;2023-03-01T07:21:48;12.67;;;6.53;;
12042;SDS011;6082;49.306;12.862;2023-03-01T07:24:14;16.20;;;6.97;;
12042;SDS011;6082;49.306;12.862;2023-03-01T07:26:40;12.00;;;4.73;;
12042;SDS011;6082;49.306;12.862;2023-03-01T07:29:07;16.27;;;7.67;;
12042;SDS011;6082;49.306;12.862;2023-03-01T07:31:33;12.33;;;6.20;;
12042;SDS011;6082;49.306;12.862;2023-03-01T07:33:59;15.43;;;6.77;;
12042;SDS011;6082;49.306;12.862;2023-03-01T07:36:25;13.70;;;6.33;;
12042;SDS011;6082;49.306;12.862;2023-03-01T07:38:51;14.30;;;7.07;;
12042;SDS011;6082;49.306;12.862;2023-03-01T07:41:17;10.43;;;6.30;;
12042;SDS011;6082;49.306;12.862;2023-03-01T07:43:43;12.63;;;5.97;;
12042;SDS011;6082;49.306;12.862;2023-03-01T07:46:09;11.20;;;6.33;;
12042;SDS011;6082;49.306;12.862;2023-03-01T07:48:35;13.13;;;6.60;;
12042;SDS011;6082;49.306;12.862;2023-03-01T07:51:02;18.00;;;7.17;;
12042;SDS011;6082;49.306;12.862;2023-03-01T07:53:29;11.70;;;6.70;;
12042;SDS011;6082;49.306;12.862;2023-03-01T07:58:28;16.13;;;6.67;;
12042;SDS011;6082;49.306;12.862;2023-03-01T08:00:54;11.80;;;6.83;;
12042;SDS011;6082;49.306;12.862;2023-03-01T08:03:21;14.50;;;8.07;;
12042;SDS011;6082;49.306;12.862;2023-03-01T08:05:47;12.73;;;6.83;;
12042;SDS011;6082;49.306;12.862;2023-03-01T08:08:13;14.93;;;7.23;;
12042;SDS011;6082;49.306;12.862;2023-03-01T08:10:39;14.80;;;8.93;;
12042;SDS011;6082;49.306;12.862;2023-03-01T08:13:05;19.13;;;8.03;;
12042;SDS011;6082;49.306;12.862;2023-03-01T08:15:31;13.47;;;6.90;;
12042;SDS011;6082;49.306;12.862;2023-03-01T08:17:57;16.97;;;9.27;;
12042;SDS011;6082;49.306;12.862;2023-03-01T08:20:23;15.50;;;8.20;;
12042;SDS011;6082;49.306;12.862;2023-03-01T08:22:49;22.37;;;10.33;;
12042;SDS011;6082;49.306;12.862;2023-03-01T08:25:18;18.73;;;7.73;;
12042;SDS011;6082;49.306;12.862;2023-03-01T08:27:44;13.67;;;7.47;;
12042;SDS011;6082;49.306;12.862;2023-03-01T08:30:10;15.97;;;7.60;;
12042;SDS011;6082;49.306;12.862;2023-03-01T08:32:37;15.33;;;8.33;;
12042;SDS011;6082;49.306;12.862;2023-03-01T08:35:04;18.13;;;8.70;;
12042;SDS011;6082;49.306;12.862;2023-03-01T08:37:30;19.17;;;8.10;;
12042;SDS011;6082;49.306;12.862;2023-03-01T08:39:57;16.63;;;8.13;;
12042;SDS011;6082;49.306;12.862;2023-03-01T08:42:24;15.77;;;7.73;;
12042;SDS011;6082;49.306;12.862;2023-03-01T08:44:50;13.33;;;7.10;;
12042;SDS011;6082;49.306;12.862;2023-03-01T08:47:16;17.73;;;9.70;;
12042;SDS011;6082;49.306;12.862;2023-03-01T08:49:42;19.57;;;8.53;;
12042;SDS011;6082;49.306;12.862;2023-03-01T08:52:08;16.30;;;9.07;;
12042;SDS011;6082;49.306;12.862;2023-03-01T08:54:34;18.83;;;9.83;;
12042;SDS011;6082;49.306;12.862;2023-03-01T08:57:03;17.00;;;8.40;;
12042;SDS011;6082;49.306;12.862;2023-03-01T08:59:29;16.33;;;8.60;;
12042;SDS011;6082;49.306;12.862;2023-03-01T09:02:04;16.33;;;9.80;;
12042;SDS011;6082;49.306;12.862;2023-03-01T09:04:30;17.33;;;8.03;;
12042;SDS011;6082;49.306;12.862;2023-03-01T09:06:56;21.73;;;7.77;;
12042;SDS011;6082;49.306;12.862;2023-03-01T09:09:22;14.27;;;7.80;;
12042;SDS011;6082;49.306;12.862;2023-03-01T09:11:48;18.23;;;8.67;;
12042;SDS011;6082;49.306;12.862;2023-03-01T09:14:15;17.27;;;8.77;;
12042;SDS011;6082;49.306;12.862;2023-03-01T09:16:42;14.13;;;7.80;;
12042;SDS011;6082;49.306;12.862;2023-03-01T09:19:08;19.03;;;9.47;;
12042;SDS011;6082;49.306;12.862;2023-03-01T09:21:34;17.83;;;8.57;;
12042;SDS011;6082;49.306;12.862;2023-03-01T09:24:00;15.57;;;8.20;;
12042;SDS011;6082;49.306;12.862;2023-03-01T09:26:26;12.97;;;6.77;;
12042;SDS011;6082;49.306;12.862;2023-03-01T09:28:53;17.17;;;8.40;;
12042;SDS011;6082;49.306;12.862;2023-03-01T09:31:19;18.53;;;8.23;;
12042;SDS011;6082;49.306;12.862;2023-03-01T09:33:46;23.37;;;11.03;;
12042;SDS011;6082;49.306;12.862;2023-03-01T09:36:14;19.83;;;8.27;;
12042;SDS011;6082;49.306;12.862;2023-03-01T09:38:40;22.57;;;9.83;;
12042;SDS011;6082;49.306;12.862;2023-03-01T09:43:52;20.10;;;9.13;;
12042;SDS011;6082;49.306;12.862;2023-03-01T09:46:21;16.20;;;8.77;;
12042;SDS011;6082;49.306;12.862;2023-03-01T09:48:57;18.17;;;8.53;;
12042;SDS011;6082;49.306;12.862;2023-03-01T09:51:29;17.67;;;7.83;;
12042;SDS011;6082;49.306;12.862;2023-03-01T09:53:56;16.53;;;8.80;;
12042;SDS011;6082;49.306;12.862;2023-03-01T09:58:54;20.40;;;8.90;;
12042;SDS011;6082;49.306;12.862;2023-03-01T10:01:44;16.57;;;8.10;;
12042;SDS011;6082;49.306;12.862;2023-03-01T10:09:36;18.43;;;8.27;;
12042;SDS011;6082;49.306;12.862;2023-03-01T10:12:04;19.83;;;8.60;;
12042;SDS011;6082;49.306;12.862;2023-03-01T10:19:44;20.47;;;8.20;;
12042;SDS011;6082;49.306;12.862;2023-03-01T10:22:29;15.80;;;8.10;;
12042;SDS011;6082;49.306;12.862;2023-03-01T10:24:57;15.80;;;7.93;;
12042;SDS011;6082;49.306;12.862;2023-03-01T10:32:36;18.10;;;7.33;;
12042;SDS011;6082;49.306;12.862;2023-03-01T10:35:14;14.93;;;8.63;;
12042;SDS011;6082;49.306;12.862;2023-03-01T10:37:46;16.03;;;7.20;;
12042;SDS011;6082;49.306;12.862;2023-03-01T10:40:21;16.57;;;7.90;;
12042;SDS011;6082;49.306;12.862;2023-03-01T10:42:48;19.07;;;8.60;;
12042;SDS011;6082;49.306;12.862;2023-03-01T10:53:27;13.93;;;7.50;;
12042;SDS011;6082;49.306;12.862;2023-03-01T10:56:13;13.60;;;7.10;;
12042;SDS011;6082;49.306;12.862;2023-03-01T10:58:40;15.20;;;8.23;;
12042;SDS011;6082;49.306;12.862;2023-03-01T11:03:42;17.70;;;7.67;;
12042;SDS011;6082;49.306;12.862;2023-03-01T11:08:44;19.83;;;8.73;;
12042;SDS011;6082;49.306;12.862;2023-03-01T11:11:25;14.53;;;8.00;;
12042;SDS011;6082;49.306;12.862;2023-03-01T11:13:57;15.40;;;8.30;;
12042;SDS011;6082;49.306;12.862;2023-03-01T11:18:57;14.83;;;7.37;;
12042;SDS011;6082;49.306;12.862;2023-03-01T11:21:24;17.30;;;7.80;;
12042;SDS011;6082;49.306;12.862;2023-03-01T11:23:51;14.87;;;7.37;;
12042;SDS011;6082;49.306;12.862;2023-03-01T11:26:17;18.20;;;8.20;;
12042;SDS011;6082;49.306;12.862;2023-03-01T11:28:44;17.43;;;7.80;;
12042;SDS011;6082;49.306;12.862;2023-03-01T11:31:11;16.10;;;9.80;;
12042;SDS011;6082;49.306;12.862;2023-03-01T11:38:50;18.13;;;8.17;;
12042;SDS011;6082;49.306;12.862;2023-03-01T11:41:25;16.40;;;8.03;;
12042;SDS011;6082;49.306;12.862;2023-03-01T11:56:55;12.53;;;7.30;;
12042;SDS011;6082;49.306;12.862;2023-03-01T12:04:34;14.00;;;8.13;;
12042;SDS011;6082;49.306;12.862;2023-03-01T12:22:39;14.87;;;7.43;;
12042;SDS011;6082;49.306;12.862;2023-03-01T12:50:24;16.77;;;7.73;;
12042;SDS011;6082;49.306;12.862;2023-03-01T12:52:57;16.53;;;7.47;;
12042;SDS011;6082;49.306;12.862;2023-03-01T12:55:37;14.27;;;7.53;;
12042;SDS011;6082;49.306;12.862;2023-03-01T13:11:20;13.00;;;7.43;;
12042;SDS011;6082;49.306;12.862;2023-03-01T13:13:47;15.30;;;7.23;;
12042;SDS011;6082;49.306;12.862;2023-03-01T13:18:46;17.00;;;7.97;;
12042;SDS011;6082;49.306;12.862;2023-03-01T13:21:12;15.83;;;8.17;;
12042;SDS011;6082;49.306;12.862;2023-03-01T13:23:38;16.60;;;8.53;;
12042;SDS011;6082;49.306;12.862;2023-03-01T13:26:12;13.67;;;8.17;;
12042;SDS011;6082;49.306;12.862;2023-03-01T13:33:46;15.97;;;7.67;;
12042;SDS011;6082;49.306;12.862;2023-03-01T13:36:47;13.83;;;7.13;;
12042;SDS011;6082;49.306;12.862;2023-03-01T13:41:52;16.00;;;8.27;;
12042;SDS011;6082;49.306;12.862;2023-03-01T13:44:37;14.60;;;7.40;;
12042;SDS011;6082;49.306;12.862;2023-03-01T13:52:02;16.97;;;8.20;;
12042;SDS011;6082;49.306;12.862;2023-03-01T13:54:31;16.67;;;8.60;;
12042;SDS011;6082;49.306;12.862;2023-03-01T13:56:59;15.90;;;7.80;;
12042;SDS011;6082;49.306;12.862;2023-03-01T13:59:25;15.50;;;8.20;;
12042;SDS011;6082;49.306;12.862;2023-03-01T14:01:52;16.00;;;7.27;;
12042;SDS011;6082;49.306;12.862;2023-03-01T14:06:45;15.17;;;7.43;;
12042;SDS011;6082;49.306;12.862;2023-03-01T14:09:27;13.93;;;7.83;;
12042;SDS011;6082;49.306;12.862;2023-03-01T14:19:57;15.43;;;8.13;;
12042;SDS011;6082;49.306;12.862;2023-03-01T14:22:28;17.70;;;8.40;;
12042;SDS011;6082;49.306;12.862;2023-03-01T14:24:56;14.53;;;8.50;;
12042;SDS011;6082;49.306;12.862;2023-03-01T14:27:23;17.37;;;8.80;;
12042;SDS011;6082;49.306;12.862;2023-03-01T14:29:55;12.80;;;7.33;;
12042;SDS011;6082;49.306;12.862;2023-03-01T14:32:22;18.40;;;7.80;;
12042;SDS011;6082;49.306;12.862;2023-03-01T14:34:50;15.20;;;8.37;;
12042;SDS011;6082;49.306;12.862;2023-03-01T14:37:21;11.40;;;6.13;;
12042;SDS011;6082;49.306;12.862;2023-03-01T14:39:47;16.60;;;8.00;;
12042;SDS011;6082;49.306;12.862;2023-03-01T14:42:13;16.43;;;8.77;;
12042;SDS011;6082;49.306;12.862;2023-03-01T14:44:43;15.20;;;8.07;;
12042;SDS011;6082;49.306;12.862;2023-03-01T14:47:23;12.90;;;7.13;;
12042;SDS011;6082;49.306;12.862;2023-03-01T14:49:54;15.60;;;8.10;;
12042;SDS011;6082;49.306;12.862;2023-03-01T14:52:22;17.70;;;8.13;;
12042;SDS011;6082;49.306;12.862;2023-03-01T14:54:50;13.90;;;7.90;;
12042;SDS011;6082;49.306;12.862;2023-03-01T14:57:25;13.20;;;7.33;;
12042;SDS011;6082;49.306;12.862;2023-03-01T14:59:51;13.77;;;7.77;;
12042;SDS011;6082;49.306;12.862;2023-03-01T15:02:19;14.43;;;7.00;;
12042;SDS011;6082;49.306;12.862;2023-03-01T15:04:47;16.73;;;9.20;;
12042;SDS011;6082;49.306;12.862;2023-03-01T15:07:14;15.13;;;7.87;;
12042;SDS011;6082;49.306;12.862;2023-03-01T15:09:41;14.60;;;7.70;;
12042;SDS011;6082;49.306;12.862;2023-03-01T15:14:52;11.97;;;6.50;;
12042;SDS011;6082;49.306;12.862;2023-03-01T15:19:57;13.13;;;6.97;;
12042;SDS011;6082;49.306;12.862;2023-03-01T15:22:24;13.47;;;6.90;;
12042;SDS011;6082;49.306;12.862;2023-03-01T15:24:51;14.13;;;7.07;;
12042;SDS011;6082;49.306;12.862;2023-03-01T15:27:18;12.63;;;7.00;;
12042;SDS011;6082;49.306;12.862;2023-03-01T15:29:49;17.30;;;6.97;;
12042;SDS011;6082;49.306;12.862;2023-03-01T15:34:51;12.00;;;6.93;;
12042;SDS011;6082;49.306;12.862;2023-03-01T15:40:02;15.97;;;7.73;;
12042;SDS011;6082;49.306;12.862;2023-03-01T15:45:19;15.87;;;9.17;;
12042;SDS011;6082;49.306;12.862;2023-03-01T15:47:56;18.27;;;8.70;;
12042;SDS011;6082;49.306;12.862;2023-03-01T15:52:55;17.03;;;9.37;;
12042;SDS011;6082;49.306;12.862;2023-03-01T15:55:26;18.10;;;9.37;;
12042;SDS011;6082;49.306;12.862;2023-03-01T16:00:25;18.40;;;9.00;;
12042;SDS011;6082;49.306;12.862;2023-03-01T16:02:51;17.83;;;9.03;;
12042;SDS011;6082;49.306;12.862;2023-03-01T16:05:22;14.83;;;9.50;;
12042;SDS011;6082;49.306;12.862;2023-03-01T16:07:49;19.40;;;9.07;;
12042;SDS011;6082;49.306;12.862;2023-03-01T16:10:15;19.70;;;8.90;;
12042;SDS011;6082;49.306;12.862;2023-03-01T16:12:41;17.17;;;8.63;;
12042;SDS011;6082;49.306;12.862;2023-03-01T16:15:11;21.10;;;8.30;;
12042;SDS011;6082;49.306;12.862;2023-03-01T16:17:39;16.70;;;8.30;;
12042;SDS011;6082;49.306;12.862;2023-03-01T16:20:05;21.13;;;8.60;;
12042;SDS011;6082;49.306;12.862;2023-03-01T16:22:31;14.40;;;7.83;;
12042;SDS011;6082;49.306;12.862;2023-03-01T16:24:57;17.17;;;8.37;;
12042;SDS011;6082;49.306;12.862;2023-03-01T16:27:23;16.43;;;8.23;;
12042;SDS011;6082;49.306;12.862;2023-03-01T16:29:50;15.73;;;8.17;;
12042;SDS011;6082;49.306;12.862;2023-03-01T16:32:16;16.87;;;8.63;;
12042;SDS011;6082;49.306;12.862;2023-03-01T16:34:42;16.80;;;8.33;;
12042;SDS011;6082;49.306;12.862;2023-03-01T16:37:08;16.00;;;8.40;;
12042;SDS011;6082;49.306;12.862;2023-03-01T16:39:34;14.40;;;7.57;;
12042;SDS011;6082;49.306;12.862;2023-03-01T16:42:01;13.97;;;7.57;;
12042;SDS011;6082;49.306;12.862;2023-03-01T16:44:27;14.27;;;7.37;;
12042;SDS011;6082;49.306;12.862;2023-03-01T16:46:53;17.83;;;7.63;;
12042;SDS011;6082;49.306;12.862;2023-03-01T16:49:19;13.83;;;6.43;;
12042;SDS011;6082;49.306;12.862;2023-03-01T16:51:46;13.03;;;6.87;;
12042;SDS011;6082;49.306;12.862;2023-03-01T16:54:12;11.87;;;6.37;;
12042;SDS011;6082;49.306;12.862;2023-03-01T16:56:38;16.30;;;8.13;;
12042;SDS011;6082;49.306;12.862;2023-03-01T16:59:04;15.87;;;8.10;;
12042;SDS011;6082;49.306;12.862;2023-03-01T17:01:31;13.90;;;7.27;;
12042;SDS011;6082;49.306;12.862;2023-03-01T17:04:05;21.57;;;8.73;;
12042;SDS011;6082;49.306;12.862;2023-03-01T17:06:35;13.57;;;7.20;;
12042;SDS011;6082;49.306;12.862;2023-03-01T17:09:01;16.00;;;7.80;;
12042;SDS011;6082;49.306;12.862;2023-03-01T17:11:27;17.53;;;9.07;;
12042;SDS011;6082;49.306;12.862;2023-03-01T17:13:53;18.17;;;8.80;;
12042;SDS011;6082;49.306;12.862;2023-03-01T17:16:19;15.13;;;7.57;;
12042;SDS011;6082;49.306;12.862;2023-03-01T17:18:45;16.90;;;8.57;;
12042;SDS011;6082;49.306;12.862;2023-03-01T17:21:12;19.83;;;9.77;;
12042;SDS011;6082;49.306;12.862;2023-03-01T17:23:39;16.57;;;8.93;;
12042;SDS011;6082;49.306;12.862;2023-03-01T17:26:05;17.47;;;8.13;;
12042;SDS011;6082;49.306;12.862;2023-03-01T17:28:32;20.13;;;8.80;;
12042;SDS011;6082;49.306;12.862;2023-03-01T17:30:59;16.00;;;8.53;;
12042;SDS011;6082;49.306;12.862;2023-03-01T17:33:26;15.53;;;7.90;;
12042;SDS011;6082;49.306;12.862;2023-03-01T17:35:55;15.87;;;8.30;;
12042;SDS011;6082;49.306;12.862;2023-03-01T17:38:21;14.37;;;7.60;;
12042;SDS011;6082;49.306;12.862;2023-03-01T17:40:47;18.67;;;8.30;;